createdAt,value
2018-02-25T00:01:25.373Z,-1.10
2018-02-25T00:03:52.921Z,-1.10
2018-02-25T00:06:20.426Z,-1.10
2018-02-25T00:08:47.965Z,-1.30
2018-02-25T00:11:15.477Z,-1.30
2018-02-25T00:13:43.769Z,-1.30
2018-02-25T00:16:11.280Z,-1.40
2018-02-25T00:18:38.818Z,-1.30
2018-02-25T00:21:06.329Z,-1.20
2018-02-25T00:23:34.601Z,-1.30
2018-02-25T00:26:02.894Z,-1.40
2018-02-25T00:28:30.403Z,-1.40
2018-02-25T00:30:57.957Z,-1.30
2018-02-25T00:33:25.458Z,-1.30
2018-02-25T00:35:53.735Z,-1.40
2018-02-25T00:38:22.028Z,-1.40
2018-02-25T00:40:49.531Z,-1.40
2018-02-25T00:43:17.112Z,-1.50
2018-02-25T00:45:44.612Z,-1.60
2018-02-25T00:48:12.157Z,-1.60
2018-02-25T00:50:39.681Z,-1.50
2018-02-25T00:53:07.949Z,-1.50
2018-02-25T00:55:35.485Z,-1.60
2018-02-25T00:58:03.027Z,-1.50
2018-02-25T01:00:30.544Z,-1.50
2018-02-25T01:02:58.817Z,-1.50
2018-02-25T01:05:27.108Z,-1.50
2018-02-25T01:07:54.663Z,-1.50
2018-02-25T01:10:22.159Z,-1.60
2018-02-25T01:12:49.681Z,-1.60
2018-02-25T01:15:17.215Z,-1.60
2018-02-25T01:17:44.728Z,-1.60
2018-02-25T01:20:12.252Z,-1.60
2018-02-25T01:22:40.543Z,-1.70
2018-02-25T01:25:08.035Z,-1.70
2018-02-25T01:27:35.566Z,-1.90
2018-02-25T01:30:03.104Z,-2.00
2018-02-25T01:32:30.603Z,-2.00
2018-02-25T01:34:58.121Z,-2.10
2018-02-25T01:37:25.626Z,-2.20
2018-02-25T01:39:53.163Z,-2.20
2018-02-25T01:42:20.670Z,-2.10
2018-02-25T01:44:48.971Z,-1.90
2018-02-25T01:47:16.492Z,-2.00
2018-02-25T01:49:44.046Z,-1.90
2018-02-25T01:52:11.559Z,-1.90
2018-02-25T01:54:39.088Z,-2.00
2018-02-25T01:57:07.432Z,-2.10
2018-02-25T01:59:34.935Z,-2.10
2018-02-25T02:02:02.497Z,-2.10
2018-02-25T02:04:30.004Z,-2.10
2018-02-25T02:06:57.566Z,-2.10
2018-02-25T02:09:25.097Z,-2.10
2018-02-25T02:11:52.621Z,-2.10
2018-02-25T02:14:20.128Z,-2.00
2018-02-25T02:16:47.657Z,-2.10
2018-02-25T02:19:15.178Z,-2.10
2018-02-25T02:21:43.455Z,-2.20
2018-02-25T02:24:11.743Z,-2.20
2018-02-25T02:26:39.249Z,-2.20
2018-02-25T02:29:06.780Z,-2.20
2018-02-25T02:31:34.279Z,-2.20
2018-02-25T02:34:01.829Z,-2.20
2018-02-25T02:36:29.346Z,-2.20
2018-02-25T02:38:56.901Z,-2.30
2018-02-25T02:41:24.400Z,-2.30
2018-02-25T02:43:51.909Z,-2.20
2018-02-25T02:46:19.426Z,-2.30
2018-02-25T02:48:46.943Z,-2.40
2018-02-25T02:51:14.476Z,-2.50
2018-02-25T02:53:42.763Z,-2.50
2018-02-25T02:56:10.309Z,-2.50
2018-02-25T02:58:37.819Z,-2.50
2018-02-25T03:01:05.319Z,-2.50
2018-02-25T03:03:32.857Z,-2.50
2018-02-25T03:06:01.136Z,-2.50
2018-02-25T03:08:28.678Z,-2.50
2018-02-25T03:10:56.224Z,-2.60
2018-02-25T03:13:23.914Z,-2.60
2018-02-25T03:15:51.437Z,-2.60
2018-02-25T03:18:18.951Z,-2.70
2018-02-25T03:20:46.487Z,-2.80
2018-02-25T03:23:14.771Z,-2.90
2018-02-25T03:25:43.079Z,-2.90
2018-02-25T03:28:10.591Z,-2.90
2018-02-25T03:30:38.892Z,-2.80
2018-02-25T03:33:07.159Z,-2.90
2018-02-25T03:35:35.432Z,-2.90
2018-02-25T03:38:03.728Z,-2.90
2018-02-25T03:40:31.229Z,-2.90
2018-02-25T03:42:58.748Z,-2.90
2018-02-25T03:45:26.249Z,-2.80
2018-02-25T03:47:53.796Z,-2.80
2018-02-25T03:50:21.309Z,-2.80
2018-02-25T03:52:48.820Z,-2.90
2018-02-25T03:55:16.362Z,-2.90
2018-02-25T03:57:43.860Z,-2.80
2018-02-25T04:00:11.377Z,-2.80
2018-02-25T04:02:38.870Z,-2.90
2018-02-25T04:05:06.419Z,-2.90
2018-02-25T04:07:33.919Z,-3.00
2018-02-25T04:10:01.421Z,-2.90
2018-02-25T04:12:28.976Z,-3.00
2018-02-25T04:14:56.473Z,-3.10
2018-02-25T04:17:24.772Z,-3.30
2018-02-25T04:19:52.284Z,-3.30
2018-02-25T04:22:19.820Z,-3.40
2018-02-25T04:24:47.334Z,-3.50
2018-02-25T04:27:14.844Z,-3.50
2018-02-25T04:29:42.387Z,-3.40
2018-02-25T04:32:09.891Z,-3.30
2018-02-25T04:34:38.208Z,-3.30
2018-02-25T04:37:05.719Z,-3.30
2018-02-25T04:39:34.054Z,-3.30
2018-02-25T04:42:01.549Z,-3.30
2018-02-25T04:44:29.076Z,-3.30
2018-02-25T04:46:56.601Z,-3.30
2018-02-25T04:49:24.105Z,-3.30
2018-02-25T04:51:51.628Z,-3.20
2018-02-25T04:54:19.169Z,-3.20
2018-02-25T04:56:46.717Z,-3.20
2018-02-25T04:59:14.987Z,-3.20
2018-02-25T05:01:43.296Z,-3.20
2018-02-25T05:04:10.818Z,-3.20
2018-02-25T05:06:39.099Z,-3.20
2018-02-25T05:09:07.388Z,-3.20
2018-02-25T05:11:34.887Z,-3.20
2018-02-25T05:14:02.419Z,-3.20
2018-02-25T05:16:29.948Z,-3.30
2018-02-25T05:18:58.270Z,-3.40
2018-02-25T05:21:25.772Z,-3.40
2018-02-25T05:23:54.048Z,-3.60
2018-02-25T05:26:22.344Z,-3.60
2018-02-25T05:28:49.864Z,-3.60
2018-02-25T05:31:17.393Z,-3.60
2018-02-25T05:33:44.912Z,-3.50
2018-02-25T05:36:12.447Z,-3.50
2018-02-25T05:38:40.732Z,-3.50
2018-02-25T05:41:09.032Z,-3.60
2018-02-25T05:43:36.536Z,-3.60
2018-02-25T05:46:04.078Z,-3.60
2018-02-25T05:48:31.578Z,-3.60
2018-02-25T05:50:59.859Z,-3.60
2018-02-25T05:53:28.176Z,-3.70
2018-02-25T05:55:55.688Z,-3.70
2018-02-25T05:58:23.988Z,-3.70
2018-02-25T06:00:51.507Z,-3.70
2018-02-25T06:03:19.012Z,-3.70
2018-02-25T06:05:46.531Z,-3.70
2018-02-25T06:08:14.853Z,-3.70
2018-02-25T06:10:42.393Z,-3.80
2018-02-25T06:13:09.904Z,-3.70
2018-02-25T06:15:37.423Z,-3.80
2018-02-25T06:18:04.934Z,-3.70
2018-02-25T06:20:32.461Z,-3.70
2018-02-25T06:22:59.987Z,-3.70
2018-02-25T06:25:27.500Z,-3.60
2018-02-25T06:27:55.032Z,-3.70
2018-02-25T06:30:22.534Z,-3.60
2018-02-25T06:32:50.845Z,-3.50
2018-02-25T06:35:18.361Z,-3.60
2018-02-25T06:37:46.632Z,-3.50
2018-02-25T06:40:14.946Z,-3.60
2018-02-25T06:42:42.483Z,-3.60
2018-02-25T06:45:09.992Z,-3.70
2018-02-25T06:47:37.491Z,-3.70
2018-02-25T06:50:05.789Z,-3.70
2018-02-25T06:52:33.295Z,-3.70
2018-02-25T06:55:00.836Z,-3.60
2018-02-25T06:57:28.399Z,-3.80
2018-02-25T06:59:55.929Z,-3.70
2018-02-25T07:02:23.428Z,-3.60
2018-02-25T07:04:50.982Z,-3.50
2018-02-25T07:07:18.501Z,-3.50
2018-02-25T07:09:46.004Z,-3.50
2018-02-25T07:12:15.045Z,-3.50
2018-02-25T07:14:42.549Z,-3.50
2018-02-25T07:17:10.084Z,-3.40
2018-02-25T07:19:37.595Z,-3.50
2018-02-25T07:22:05.968Z,-3.50
2018-02-25T07:24:33.423Z,-3.50
2018-02-25T07:27:01.724Z,-3.50
2018-02-25T07:29:29.231Z,-3.50
2018-02-25T07:31:56.749Z,-3.50
2018-02-25T07:34:24.286Z,-3.50
2018-02-25T07:36:51.797Z,-3.50
2018-02-25T07:39:19.323Z,-3.40
2018-02-25T07:41:46.835Z,-3.30
2018-02-25T07:44:14.380Z,-3.30
2018-02-25T07:46:41.969Z,-3.30
2018-02-25T07:49:10.276Z,-3.40
2018-02-25T07:51:37.807Z,-3.40
2018-02-25T07:54:06.093Z,-3.40
2018-02-25T07:56:33.628Z,-3.40
2018-02-25T07:59:01.904Z,-3.10
2018-02-25T08:01:30.217Z,-3.10
2018-02-25T08:03:57.746Z,-3.10
2018-02-25T08:06:25.253Z,-3.10
2018-02-25T08:08:52.789Z,-3.10
2018-02-25T08:11:20.289Z,-3.10
2018-02-25T08:13:47.844Z,-3.10
2018-02-25T08:16:15.356Z,-3.10
2018-02-25T08:18:42.924Z,-3.10
2018-02-25T08:21:10.432Z,-3.00
2018-02-25T08:23:38.072Z,-2.90
2018-02-25T08:26:05.597Z,-2.90
2018-02-25T08:28:33.144Z,-2.90
2018-02-25T08:31:00.648Z,-2.90
2018-02-25T08:33:28.173Z,-2.70
2018-02-25T08:35:55.717Z,-2.60
2018-02-25T08:38:23.227Z,-2.50
2018-02-25T08:40:50.771Z,-2.40
2018-02-25T08:43:18.276Z,-2.40
2018-02-25T08:45:45.819Z,-2.50
2018-02-25T08:48:14.123Z,-2.20
2018-02-25T08:50:41.664Z,-2.30
2018-02-25T08:53:09.184Z,-2.20
2018-02-25T08:55:36.712Z,-2.10
2018-02-25T08:58:04.269Z,-2.10
2018-02-25T09:00:31.789Z,-2.00
2018-02-25T09:03:00.100Z,-1.90
2018-02-25T09:05:27.632Z,-1.90
2018-02-25T09:07:55.929Z,-1.60
2018-02-25T09:10:23.469Z,-1.60
2018-02-25T09:12:51.063Z,-1.50
2018-02-25T09:15:18.636Z,-1.30
2018-02-25T09:17:46.142Z,-1.00
2018-02-25T09:20:13.684Z,-0.80
2018-02-25T09:22:41.991Z,-0.40
2018-02-25T09:25:09.525Z,-0.50
2018-02-25T09:27:37.850Z,-0.10
2018-02-25T09:30:05.368Z,-0.20
2018-02-25T09:32:32.894Z,0.00
2018-02-25T09:35:00.424Z,0.00
2018-02-25T09:37:27.963Z,-0.10
2018-02-25T09:39:55.473Z,-0.10
2018-02-25T09:42:23.784Z,0.10
2018-02-25T09:44:51.316Z,0.10
2018-02-25T09:47:19.622Z,-0.10
2018-02-25T09:49:47.190Z,-0.20
2018-02-25T09:52:14.750Z,-0.30
2018-02-25T09:54:42.283Z,0.00
2018-02-25T09:57:09.803Z,0.10
2018-02-25T09:59:38.837Z,0.40
2018-02-25T10:02:06.375Z,0.40
2018-02-25T10:04:35.452Z,0.80
2018-02-25T10:07:02.981Z,0.70
2018-02-25T10:09:30.538Z,0.60
2018-02-25T10:11:58.081Z,0.60
2018-02-25T10:14:25.582Z,0.70
2018-02-25T10:16:53.104Z,0.80
2018-02-25T10:19:20.617Z,1.00
2018-02-25T10:21:48.929Z,1.20
2018-02-25T10:24:16.433Z,1.20
2018-02-25T10:26:43.932Z,0.90
2018-02-25T10:29:11.496Z,1.00
2018-02-25T10:31:39.011Z,1.10
2018-02-25T10:34:06.536Z,1.20
2018-02-25T10:36:34.097Z,1.10
2018-02-25T10:39:01.639Z,1.20
2018-02-25T10:41:29.201Z,1.60
2018-02-25T10:43:56.724Z,1.90
2018-02-25T10:46:24.255Z,2.10
2018-02-25T10:48:51.780Z,2.30
2018-02-25T10:51:19.278Z,2.50
2018-02-25T10:53:47.589Z,3.10
2018-02-25T10:56:15.109Z,3.10
2018-02-25T10:58:42.600Z,3.30
2018-02-25T11:01:10.133Z,3.60
2018-02-25T11:03:38.396Z,3.90
2018-02-25T11:06:05.920Z,3.90
2018-02-25T11:08:33.434Z,4.00
2018-02-25T11:11:01.754Z,4.00
2018-02-25T11:13:29.267Z,4.00
2018-02-25T11:15:56.767Z,4.00
2018-02-25T11:18:24.298Z,4.20
2018-02-25T11:20:51.822Z,4.30
2018-02-25T11:23:19.380Z,4.60
2018-02-25T11:25:46.908Z,5.00
2018-02-25T11:28:14.424Z,5.00
2018-02-25T11:30:41.936Z,5.00
2018-02-25T11:33:09.478Z,5.30
2018-02-25T11:35:36.987Z,5.40
2018-02-25T11:38:05.250Z,5.60
2018-02-25T11:40:32.776Z,5.60
2018-02-25T11:43:00.278Z,5.80
2018-02-25T11:45:28.568Z,6.10
2018-02-25T11:47:56.065Z,6.10
2018-02-25T11:50:23.585Z,6.10
2018-02-25T11:52:51.072Z,6.10
2018-02-25T11:55:18.611Z,5.80
2018-02-25T11:57:46.130Z,5.50
2018-02-25T12:00:14.464Z,5.80
2018-02-25T12:02:42.017Z,5.70
2018-02-25T12:05:09.547Z,6.00
2018-02-25T12:07:37.073Z,6.40
2018-02-25T12:10:04.586Z,6.70
2018-02-25T12:12:32.139Z,7.00
2018-02-25T12:14:59.733Z,7.20
2018-02-25T12:17:27.976Z,7.20
2018-02-25T12:19:55.481Z,7.20
2018-02-25T12:22:22.997Z,7.10
2018-02-25T12:24:50.547Z,7.30
2018-02-25T12:27:18.056Z,7.50
2018-02-25T12:29:45.572Z,7.50
2018-02-25T12:32:13.086Z,7.50
2018-02-25T12:34:41.398Z,7.40
2018-02-25T12:37:08.940Z,7.40
2018-02-25T12:39:36.456Z,7.50
2018-02-25T12:42:03.999Z,7.70
2018-02-25T12:44:32.277Z,7.80
2018-02-25T12:46:59.829Z,7.80
2018-02-25T12:49:27.338Z,7.90
2018-02-25T12:51:54.851Z,7.90
2018-02-25T12:54:22.382Z,8.20
2018-02-25T12:56:49.907Z,8.20
2018-02-25T12:59:17.438Z,8.20
2018-02-25T13:01:44.962Z,8.20
2018-02-25T13:04:12.502Z,8.40
2018-02-25T13:06:40.018Z,8.70
2018-02-25T13:09:08.337Z,8.60
2018-02-25T13:11:35.840Z,8.60
2018-02-25T13:14:04.115Z,8.40
2018-02-25T13:16:31.668Z,8.30
2018-02-25T13:18:59.161Z,8.50
2018-02-25T13:21:27.457Z,9.30
2018-02-25T13:23:54.987Z,9.30
2018-02-25T13:26:23.326Z,9.50
2018-02-25T13:28:50.835Z,9.50
2018-02-25T13:31:18.394Z,9.70
2018-02-25T13:33:45.905Z,9.90
2018-02-25T13:36:13.436Z,10.20
2018-02-25T13:38:40.980Z,10.60
2018-02-25T13:41:08.492Z,10.80
2018-02-25T13:43:36.012Z,10.80
2018-02-25T13:46:03.512Z,11.10
2018-02-25T13:48:31.116Z,11.30
2018-02-25T13:50:58.641Z,11.80
2018-02-25T13:53:26.931Z,12.30
2018-02-25T13:55:54.502Z,12.30
2018-02-25T13:58:22.048Z,12.70
2018-02-25T14:00:49.555Z,13.10
2018-02-25T14:03:17.066Z,13.40
2018-02-25T14:05:44.644Z,13.70
2018-02-25T14:08:12.297Z,13.40
2018-02-25T14:10:39.848Z,13.40
2018-02-25T14:13:07.413Z,12.90
2018-02-25T14:15:35.694Z,12.70
2018-02-25T14:18:03.240Z,12.70
2018-02-25T14:20:30.740Z,12.20
2018-02-25T14:22:58.308Z,11.80
2018-02-25T14:25:25.836Z,11.60
2018-02-25T14:27:53.366Z,11.60
2018-02-25T14:30:20.931Z,11.30
2018-02-25T14:32:48.559Z,10.80
2018-02-25T14:35:16.860Z,9.60
2018-02-25T14:37:44.370Z,9.60
2018-02-25T14:40:11.879Z,9.30
2018-02-25T14:42:39.406Z,8.70
2018-02-25T14:45:07.679Z,7.90
2018-02-25T14:47:35.982Z,7.70
2018-02-25T14:50:03.500Z,7.60
2018-02-25T14:52:31.025Z,7.50
2018-02-25T14:54:58.545Z,7.10
2018-02-25T14:57:26.847Z,6.40
2018-02-25T14:59:54.364Z,6.40
2018-02-25T15:02:22.644Z,6.00
2018-02-25T15:04:50.947Z,5.90
2018-02-25T15:07:18.485Z,5.90
2018-02-25T15:09:46.781Z,5.20
2018-02-25T15:12:14.290Z,5.20
2018-02-25T15:14:41.818Z,5.00
2018-02-25T15:17:09.363Z,4.80
2018-02-25T15:19:36.931Z,4.70
2018-02-25T15:22:04.487Z,4.70
2018-02-25T15:24:31.996Z,4.60
2018-02-25T15:27:00.317Z,4.50
2018-02-25T15:29:27.819Z,4.40
2018-02-25T15:31:55.336Z,4.40
2018-02-25T15:34:22.876Z,4.30
2018-02-25T15:36:50.679Z,4.20
2018-02-25T15:39:18.213Z,4.20
2018-02-25T15:41:45.759Z,4.10
2018-02-25T15:44:13.288Z,3.90
2018-02-25T15:46:41.556Z,3.70
2018-02-25T15:49:09.072Z,3.70
2018-02-25T15:51:36.576Z,3.60
2018-02-25T15:54:04.894Z,3.50
2018-02-25T15:56:32.393Z,3.50
2018-02-25T15:59:00.185Z,3.40
2018-02-25T16:01:28.503Z,3.30
2018-02-25T16:03:56.016Z,3.30
2018-02-25T16:06:24.321Z,3.30
2018-02-25T16:08:51.815Z,3.20
2018-02-25T16:11:19.364Z,3.10
2018-02-25T16:13:46.856Z,3.10
2018-02-25T16:16:15.152Z,2.80
2018-02-25T16:18:42.674Z,2.80
2018-02-25T16:21:10.208Z,2.60
2018-02-25T16:23:37.757Z,2.40
2018-02-25T16:26:05.301Z,2.40
2018-02-25T16:28:32.810Z,2.20
2018-02-25T16:31:00.333Z,2.20
2018-02-25T16:33:27.881Z,2.20
2018-02-25T16:35:55.371Z,2.20
2018-02-25T16:38:23.634Z,2.10
2018-02-25T16:40:51.171Z,2.10
2018-02-25T16:43:18.696Z,2.00
2018-02-25T16:45:46.249Z,2.00
2018-02-25T16:48:14.573Z,1.70
2018-02-25T16:50:42.131Z,1.70
2018-02-25T16:53:09.634Z,1.60
2018-02-25T16:55:37.936Z,1.60
2018-02-25T16:58:05.451Z,1.60
2018-02-25T17:00:33.069Z,1.60
2018-02-25T17:03:00.577Z,1.60
2018-02-25T17:05:28.111Z,1.60
2018-02-25T17:07:55.607Z,1.60
2018-02-25T17:10:23.133Z,1.50
2018-02-25T17:12:50.725Z,1.50
2018-02-25T17:15:19.036Z,1.30
2018-02-25T17:17:46.609Z,1.30
2018-02-25T17:20:14.115Z,1.30
2018-02-25T17:22:42.409Z,1.20
2018-02-25T17:25:09.932Z,1.30
2018-02-25T17:27:38.346Z,1.20
2018-02-25T17:30:05.872Z,1.20
2018-02-25T17:32:34.157Z,1.10
2018-02-25T17:35:02.448Z,1.00
2018-02-25T17:37:29.949Z,1.00
2018-02-25T17:39:57.529Z,1.00
2018-02-25T17:42:25.025Z,1.00
2018-02-25T17:44:54.240Z,0.90
2018-02-25T17:47:21.758Z,0.90
2018-02-25T17:49:50.040Z,0.90
2018-02-25T17:52:18.353Z,0.90
2018-02-25T17:54:45.997Z,0.80
2018-02-25T17:57:13.498Z,0.90
2018-02-25T17:59:41.034Z,0.80
2018-02-25T18:02:08.577Z,0.80
2018-02-25T18:04:36.076Z,0.80
2018-02-25T18:07:03.616Z,0.80
2018-02-25T18:09:31.141Z,0.80
2018-02-25T18:11:58.691Z,0.80
2018-02-25T18:14:26.209Z,0.70
2018-02-25T18:16:53.778Z,0.70
2018-02-25T18:19:22.091Z,0.60
2018-02-25T18:21:49.599Z,0.60
2018-02-25T18:24:17.134Z,0.60
2018-02-25T18:26:44.649Z,0.60
2018-02-25T18:29:12.209Z,0.50
2018-02-25T18:31:39.724Z,0.50
2018-02-25T18:34:07.293Z,0.50
2018-02-25T18:36:34.832Z,0.40
2018-02-25T18:39:02.341Z,0.40
2018-02-25T18:41:29.902Z,0.30
2018-02-25T18:43:57.424Z,0.30
2018-02-25T18:46:24.962Z,0.20
2018-02-25T18:48:52.469Z,0.20
2018-02-25T18:51:20.040Z,0.20
2018-02-25T18:53:47.571Z,0.20
2018-02-25T18:56:15.892Z,0.10
2018-02-25T18:58:43.485Z,0.00
2018-02-25T19:01:11.006Z,0.00
2018-02-25T19:03:38.568Z,0.00
2018-02-25T19:06:06.118Z,-0.10
2018-02-25T19:08:33.671Z,-0.10
2018-02-25T19:11:01.196Z,-0.20
2018-02-25T19:13:29.523Z,-0.20
2018-02-25T19:15:57.061Z,-0.20
2018-02-25T19:18:24.601Z,-0.20
2018-02-25T19:20:52.923Z,-0.30
2018-02-25T19:23:20.440Z,-0.20
2018-02-25T19:25:47.984Z,-0.30
2018-02-25T19:28:16.272Z,-0.40
2018-02-25T19:30:44.633Z,-0.40
2018-02-25T19:33:12.924Z,-0.30
2018-02-25T19:35:46.223Z,-0.40
2018-02-25T19:38:19.549Z,-0.40
2018-02-25T19:40:52.722Z,-0.40
2018-02-25T19:43:20.284Z,-0.50
2018-02-25T19:45:47.837Z,-0.60
2018-02-25T19:48:15.397Z,-0.60
2018-02-25T19:50:42.937Z,-0.70
2018-02-25T19:53:10.545Z,-0.70
2018-02-25T19:55:38.072Z,-0.70
2018-02-25T19:58:05.645Z,-0.70
2018-02-25T20:00:33.206Z,-0.80
2018-02-25T20:03:00.769Z,-0.90
2018-02-25T20:05:28.301Z,-0.90
2018-02-25T20:07:55.837Z,-0.90
2018-02-25T20:10:24.160Z,-1.00
2018-02-25T20:12:51.713Z,-1.00
2018-02-25T20:15:19.275Z,-1.00
2018-02-25T20:17:46.829Z,-1.00
2018-02-25T20:20:14.370Z,-1.00
2018-02-25T20:22:41.930Z,-0.90
2018-02-25T20:25:09.485Z,-0.90
2018-02-25T20:27:37.064Z,-0.90
2018-02-25T20:30:04.629Z,-0.90
2018-02-25T20:32:32.154Z,-0.90
2018-02-25T20:34:59.738Z,-1.00
2018-02-25T20:37:27.262Z,-1.00
2018-02-25T20:39:54.834Z,-1.00
2018-02-25T20:42:22.471Z,-1.00
2018-02-25T20:44:50.012Z,-1.00
2018-02-25T20:47:17.517Z,-1.00
2018-02-25T20:49:45.108Z,-1.00
2018-02-25T20:52:12.631Z,-1.10
2018-02-25T20:54:40.154Z,-1.10
2018-02-25T20:57:08.470Z,-1.00
2018-02-25T20:59:35.999Z,-1.00
2018-02-25T21:02:04.321Z,-1.00
2018-02-25T21:04:31.872Z,-1.00
2018-02-25T21:06:59.446Z,-1.00
2018-02-25T21:09:26.985Z,-1.00
2018-02-25T21:11:54.532Z,-1.00
2018-02-25T21:14:22.034Z,-1.00
2018-02-25T21:16:50.326Z,-1.10
2018-02-25T21:19:18.643Z,-1.10
2018-02-25T21:21:46.175Z,-1.10
2018-02-25T21:24:14.488Z,-1.10
2018-02-25T21:26:42.001Z,-1.10
2018-02-25T21:29:10.320Z,-1.10
2018-02-25T21:31:37.844Z,-1.10
2018-02-25T21:34:06.177Z,-1.00
2018-02-25T21:36:33.724Z,-1.10
2018-02-25T21:39:01.241Z,-1.00
2018-02-25T21:41:29.549Z,-1.10
2018-02-25T21:43:57.133Z,-1.10
2018-02-25T21:46:24.642Z,-1.10
2018-02-25T21:48:52.158Z,-1.10
2018-02-25T21:51:19.706Z,-1.10
2018-02-25T21:53:47.217Z,-1.10
2018-02-25T21:56:20.438Z,-1.10
2018-02-25T21:58:53.553Z,-1.10
2018-02-25T22:01:26.847Z,-1.10
2018-02-25T22:03:59.192Z,-1.10
2018-02-25T22:06:26.720Z,-1.20
2018-02-25T22:08:54.291Z,-1.20
2018-02-25T22:11:21.808Z,-1.20
2018-02-25T22:13:49.364Z,-1.20
2018-02-25T22:16:17.677Z,-1.20
2018-02-25T22:18:45.207Z,-1.30
2018-02-25T22:21:13.512Z,-1.30
2018-02-25T22:23:41.086Z,-1.30
2018-02-25T22:26:08.623Z,-1.30
2018-02-25T22:28:36.128Z,-1.40
2018-02-25T22:31:03.682Z,-1.40
2018-02-25T22:33:31.186Z,-1.40
2018-02-25T22:35:58.765Z,-1.40
2018-02-25T22:38:26.296Z,-1.40
2018-02-25T22:40:54.592Z,-1.50
2018-02-25T22:43:22.121Z,-1.50
2018-02-25T22:45:49.639Z,-1.50
2018-02-25T22:48:17.214Z,-1.50
2018-02-25T22:50:44.721Z,-1.50
2018-02-25T22:53:12.243Z,-1.60
2018-02-25T22:55:40.517Z,-1.70
2018-02-25T22:58:08.832Z,-1.70
2018-02-25T23:00:36.332Z,-1.70
2018-02-25T23:03:03.864Z,-1.70
2018-02-25T23:05:31.398Z,-1.70
2018-02-25T23:07:58.925Z,-1.70
2018-02-25T23:10:26.456Z,-1.70
2018-02-25T23:12:53.968Z,-1.70
2018-02-25T23:15:21.529Z,-1.80
2018-02-25T23:17:49.034Z,-1.80
2018-02-25T23:20:16.531Z,-1.80
2018-02-25T23:22:44.830Z,-1.90
2018-02-25T23:25:12.343Z,-1.90
2018-02-25T23:27:39.867Z,-1.90
2018-02-25T23:30:07.371Z,-2.10
2018-02-25T23:32:35.653Z,-2.10
2018-02-25T23:35:03.927Z,-2.10
2018-02-25T23:37:32.237Z,-2.00
2018-02-25T23:39:59.736Z,-2.10
2018-02-25T23:42:27.286Z,-2.00
2018-02-25T23:44:54.812Z,-2.00
2018-02-25T23:47:22.325Z,-2.10
2018-02-25T23:49:50.614Z,-2.10
2018-02-25T23:52:18.885Z,-2.10
2018-02-25T23:54:47.200Z,-2.10
2018-02-25T23:57:14.704Z,-2.10
2018-02-25T23:59:42.980Z,-2.10
